createdAt,value
2019-04-06T07:38:43.589Z,2.54
2019-04-06T07:39:49.001Z,2.45
2019-04-06T07:47:20.819Z,2.04
2019-04-06T07:55:10.085Z,2.25
2019-04-06T08:00:49.711Z,2.39
2019-04-06T08:04:57.526Z,2.89
2019-04-06T08:09:08.389Z,2.37
2019-04-06T08:13:15.226Z,2.10
2019-04-06T08:17:22.035Z,2.39
2019-04-06T08:20:06.924Z,3.09
2019-04-06T08:24:14.434Z,2.65
2019-04-06T08:25:46.552Z,2.71
2019-04-06T08:34:22.573Z,1.91
2019-04-06T08:35:29.122Z,2.76
2019-04-06T08:39:37.148Z,2.66
2019-04-06T08:43:38.544Z,2.62
2019-04-06T08:48:40.653Z,15.83
2019-04-06T08:54:32.250Z,17.79
2019-04-06T08:58:27.023Z,18.80
2019-04-06T09:02:58.001Z,16.56
2019-04-06T09:08:50.273Z,19.05
2019-04-06T09:12:45.968Z,20.52
2019-04-06T09:16:48.935Z,21.76
2019-04-06T09:20:52.919Z,18.79
2019-04-06T09:24:56.548Z,18.20
2019-04-06T09:29:02.729Z,16.73
2019-04-06T09:34:04.452Z,18.69
2019-04-06T09:38:05.462Z,19.59
2019-04-06T09:43:04.612Z,14.32
2019-04-06T09:47:11.480Z,18.74
2019-04-06T09:51:57.545Z,16.16
2019-04-06T09:56:21.793Z,13.55
2019-04-06T10:00:38.178Z,13.34
2019-04-06T10:05:21.077Z,14.70
2019-04-06T10:09:49.380Z,15.91
2019-04-06T10:15:15.457Z,14.71
2019-04-06T10:19:42.243Z,13.69
2019-04-06T10:27:45.018Z,13.89
2019-04-06T10:32:16.848Z,15.93
2019-04-06T10:36:31.689Z,13.20
2019-04-06T10:41:15.591Z,13.54
2019-04-06T10:45:42.069Z,11.80
2019-04-06T10:50:49.349Z,13.09
2019-04-06T10:55:14.934Z,12.41
2019-04-06T11:01:22.945Z,13.77
2019-04-06T11:09:19.974Z,13.16
2019-04-06T11:13:39.616Z,22.40
2019-04-06T11:18:15.082Z,13.80
2019-04-06T11:26:54.302Z,12.94
2019-04-06T11:30:59.998Z,12.10
2019-04-06T11:43:41.130Z,12.46
2019-04-06T11:47:51.510Z,17.06
2019-04-06T11:52:05.470Z,12.55
2019-04-06T12:00:09.748Z,13.45
2019-04-06T12:04:34.458Z,13.31
2019-04-06T12:14:37.125Z,17.08
2019-04-06T12:28:44.647Z,12.50
2019-04-06T12:32:49.708Z,12.06
2019-04-06T12:37:42.211Z,12.55
2019-04-06T12:45:55.830Z,11.16
2019-04-06T12:53:55.182Z,11.79
2019-04-06T13:03:55.741Z,10.84
2019-04-06T13:08:07.379Z,12.35
2019-04-06T13:12:19.925Z,10.94
2019-04-06T13:24:38.168Z,12.50
2019-04-06T13:28:50.291Z,11.84
2019-04-06T13:33:04.214Z,10.57
2019-04-06T13:37:35.092Z,12.11
2019-04-06T13:41:48.970Z,11.27
2019-04-06T14:18:41.388Z,13.36
2019-04-06T14:22:55.085Z,13.39
2019-04-06T14:30:59.142Z,10.76
2019-04-06T14:41:17.514Z,23.41
2019-04-06T14:46:24.845Z,12.00
2019-04-06T14:50:36.785Z,12.04
2019-04-06T14:54:50.358Z,8.59
2019-04-06T15:06:52.745Z,11.40
2019-04-06T15:24:51.346Z,12.44
2019-04-06T15:29:19.126Z,12.71
2019-04-06T15:33:27.298Z,13.30
2019-04-06T15:37:45.014Z,14.03
2019-04-06T15:42:09.661Z,14.24
2019-04-06T15:47:40.971Z,11.36
2019-04-06T15:52:12.242Z,11.04
2019-04-06T15:56:48.188Z,10.11
2019-04-06T16:01:00.474Z,11.70
2019-04-06T16:07:39.548Z,9.81
2019-04-06T16:11:50.069Z,13.08
2019-04-06T16:16:19.260Z,11.95
2019-04-06T16:21:26.816Z,11.93
2019-04-06T16:27:51.574Z,11.77
2019-04-06T16:33:59.923Z,10.99
2019-04-06T16:38:28.509Z,15.00
2019-04-06T16:46:40.161Z,9.96
2019-04-06T16:51:06.692Z,11.15
2019-04-06T16:55:22.617Z,10.50
2019-04-06T16:59:31.922Z,11.19
2019-04-06T17:05:50.794Z,13.08
2019-04-06T17:13:46.650Z,11.81
2019-04-06T17:20:02.401Z,12.18
2019-04-06T17:24:07.952Z,11.78
2019-04-06T17:28:21.953Z,14.94
2019-04-06T17:35:03.811Z,11.25
2019-04-06T17:41:05.856Z,11.71
2019-04-06T17:49:17.335Z,10.84
2019-04-06T17:53:53.750Z,12.48
2019-04-06T17:58:39.605Z,12.66
2019-04-06T18:03:18.607Z,13.92
2019-04-06T18:08:00.534Z,22.13
2019-04-06T18:12:17.447Z,13.02
2019-04-06T18:18:17.556Z,15.02
2019-04-06T18:22:13.531Z,12.61
2019-04-06T18:34:11.478Z,15.61
2019-04-06T18:41:56.458Z,11.81
2019-04-06T18:45:51.076Z,12.99
2019-04-06T18:49:54.674Z,21.71
2019-04-06T18:54:01.585Z,18.99
2019-04-06T18:58:15.392Z,23.77
2019-04-06T19:04:12.325Z,35.49
2019-04-06T19:12:23.570Z,19.63
2019-04-06T19:16:20.702Z,15.69
2019-04-06T19:20:23.520Z,22.07
2019-04-06T19:24:27.088Z,12.67
2019-04-06T19:28:31.244Z,18.95
2019-04-06T19:32:39.033Z,14.80
2019-04-06T19:36:41.661Z,16.19
2019-04-06T19:54:43.400Z,15.91
2019-04-06T20:00:32.893Z,13.39
2019-04-06T20:04:31.898Z,15.19
2019-04-06T20:10:34.169Z,17.39
2019-04-06T20:22:24.027Z,16.80
2019-04-06T20:26:18.478Z,18.29
2019-04-06T20:30:25.574Z,17.66
2019-04-06T20:34:31.109Z,17.94
2019-04-06T20:44:33.466Z,19.36
2019-04-06T21:21:05.167Z,21.63
2019-04-06T21:32:53.478Z,22.25
2019-04-06T21:36:48.301Z,18.71
2019-04-06T22:17:18.682Z,23.89
2019-04-06T22:31:05.486Z,24.30
2019-04-06T22:40:51.895Z,22.06
2019-04-06T22:44:46.422Z,26.55
2019-04-06T22:54:40.044Z,21.73
2019-04-06T22:58:34.559Z,20.25
2019-04-06T23:14:30.407Z,22.16
2019-04-06T23:18:25.668Z,22.17
2019-04-06T23:22:28.586Z,23.52
2019-04-06T23:26:37.393Z,22.91
2019-04-06T23:38:33.826Z,21.19
2019-04-06T23:42:28.138Z,20.69
